createdAt,value
2022-12-26T00:00:29.589Z,95139.09
2022-12-26T00:02:56.315Z,95139.69
2022-12-26T00:05:22.988Z,95137.09
2022-12-26T00:07:49.543Z,95144.09
2022-12-26T00:10:16.184Z,95145.84
2022-12-26T00:12:42.730Z,95137.09
2022-12-26T00:15:09.358Z,95138.41
2022-12-26T00:17:35.956Z,95142.13
2022-12-26T00:20:02.732Z,95141.06
2022-12-26T00:22:29.351Z,95142.47
2022-12-26T00:24:55.934Z,95144.09
2022-12-26T00:27:22.564Z,95144.78
2022-12-26T00:29:49.154Z,95149.47
2022-12-26T00:32:15.747Z,95148.63
2022-12-26T00:34:42.300Z,95147.13
2022-12-26T00:37:08.859Z,95143.47
2022-12-26T00:39:35.440Z,95147.31
2022-12-26T00:42:02.021Z,95136.03
2022-12-26T00:44:28.617Z,95147.75
2022-12-26T00:46:55.314Z,95146.59
2022-12-26T00:49:21.978Z,95141.31
2022-12-26T00:51:48.505Z,95148.63
2022-12-26T00:54:15.101Z,95152.34
2022-12-26T00:56:41.713Z,95152.44
2022-12-26T00:59:08.292Z,95152.09
2022-12-26T01:01:34.946Z,95147.81
2022-12-26T01:04:01.645Z,95155.31
2022-12-26T01:06:29.739Z,95151.47
2022-12-26T01:08:56.344Z,95151.66
2022-12-26T01:11:41.256Z,95151.63
2022-12-26T01:14:16.369Z,95150.91
2022-12-26T01:16:46.892Z,95160.66
2022-12-26T01:19:14.059Z,95160.97
2022-12-26T01:21:42.993Z,95161.91
2022-12-26T01:24:09.801Z,95156.28
2022-12-26T01:26:36.427Z,95165.69
2022-12-26T01:29:03.036Z,95175.41
2022-12-26T01:31:29.676Z,95168.50
2022-12-26T01:33:56.280Z,95168.41
2022-12-26T01:36:22.911Z,95172.19
2022-12-26T01:38:52.442Z,95173.22
2022-12-26T01:41:21.910Z,95179.44
2022-12-26T01:43:58.840Z,95181.09
2022-12-26T01:46:39.353Z,95174.69
2022-12-26T01:49:32.378Z,95182.22
2022-12-26T01:52:03.332Z,95174.47
2022-12-26T01:54:39.168Z,95174.56
2022-12-26T01:57:23.767Z,95182.66
2022-12-26T01:59:52.088Z,95187.03
2022-12-26T02:02:21.097Z,95187.44
2022-12-26T02:05:09.261Z,95184.19
2022-12-26T02:07:39.299Z,95177.25
2022-12-26T02:10:09.413Z,95178.28
2022-12-26T02:12:39.101Z,95178.59
2022-12-26T02:15:12.880Z,95177.38
2022-12-26T02:17:43.225Z,95184.22
2022-12-26T02:20:15.761Z,95186.97
2022-12-26T02:22:42.290Z,95191.78
2022-12-26T02:25:33.433Z,95185.25
2022-12-26T02:28:08.792Z,95191.97
2022-12-26T02:30:47.413Z,95191.25
2022-12-26T02:33:16.963Z,95186.50
2022-12-26T02:35:52.327Z,95194.03
2022-12-26T02:38:30.774Z,95183.75
2022-12-26T02:41:00.250Z,95193.22
2022-12-26T02:44:00.620Z,95187.41
2022-12-26T02:46:52.779Z,95186.91
2022-12-26T02:50:00.923Z,95189.13
2022-12-26T02:53:16.018Z,95188.03
2022-12-26T02:56:04.527Z,95181.06
2022-12-26T02:59:05.912Z,95178.13
2022-12-26T03:02:05.705Z,95181.88
2022-12-26T03:04:55.195Z,95182.81
2022-12-26T03:07:51.999Z,95179.34
2022-12-26T03:10:40.583Z,95174.00
2022-12-26T03:13:14.129Z,95185.38
2022-12-26T03:16:22.125Z,95176.66
2022-12-26T03:18:57.813Z,95174.66
2022-12-26T03:21:34.804Z,95182.06
2022-12-26T03:24:01.538Z,95173.69
2022-12-26T03:26:42.049Z,95174.53
2022-12-26T03:29:37.678Z,95169.47
2022-12-26T03:32:07.556Z,95167.53
2022-12-26T03:34:37.689Z,95175.06
2022-12-26T03:37:48.422Z,95165.50
2022-12-26T03:40:44.028Z,95165.28
2022-12-26T03:43:58.660Z,95171.53
2022-12-26T03:46:59.567Z,95169.91
2022-12-26T03:49:48.211Z,95161.84
2022-12-26T03:52:39.678Z,95162.94
2022-12-26T03:55:29.465Z,95160.34
2022-12-26T03:58:24.142Z,95165.28
2022-12-26T04:01:12.741Z,95162.25
2022-12-26T04:04:01.033Z,95164.28
2022-12-26T04:06:52.839Z,95162.69
2022-12-26T04:09:48.555Z,95167.47
2022-12-26T04:12:40.144Z,95182.91
2022-12-26T04:15:51.287Z,95186.38
2022-12-26T04:18:43.025Z,95190.16
2022-12-26T04:21:32.363Z,95199.09
2022-12-26T04:24:24.972Z,95200.72
2022-12-26T04:27:13.481Z,95197.63
2022-12-26T04:29:59.043Z,95194.84
2022-12-26T04:33:08.760Z,95190.38
2022-12-26T04:36:21.996Z,95195.78
2022-12-26T04:39:13.412Z,95192.28
2022-12-26T04:42:00.658Z,95186.84
2022-12-26T04:44:28.791Z,95193.78
2022-12-26T04:46:57.085Z,95188.75
2022-12-26T04:49:42.433Z,95197.97
2022-12-26T04:52:14.672Z,95191.97
2022-12-26T04:54:41.695Z,95193.53
2022-12-26T04:57:08.535Z,95191.94
2022-12-26T04:59:35.085Z,95180.25
2022-12-26T05:02:20.418Z,95183.88
2022-12-26T05:05:05.733Z,95189.28
2022-12-26T05:07:55.623Z,95184.44
2022-12-26T05:10:25.725Z,95188.53
2022-12-26T05:12:53.357Z,95199.38
2022-12-26T05:15:20.556Z,95191.19
2022-12-26T05:18:06.608Z,95195.78
2022-12-26T05:20:51.832Z,95209.16
2022-12-26T05:23:41.009Z,95212.94
2022-12-26T05:26:38.902Z,95217.94
2022-12-26T05:29:05.778Z,95226.72
2022-12-26T05:31:35.991Z,95227.72
2022-12-26T05:34:12.114Z,95229.09
2022-12-26T05:36:42.009Z,95229.53
2022-12-26T05:39:09.442Z,95231.31
2022-12-26T05:41:37.071Z,95230.16
2022-12-26T05:44:04.413Z,95237.63
2022-12-26T05:46:31.058Z,95246.59
2022-12-26T05:48:57.718Z,95249.06
2022-12-26T05:51:24.809Z,95240.84
2022-12-26T05:53:51.896Z,95234.72
2022-12-26T05:56:19.531Z,95245.06
2022-12-26T05:58:46.999Z,95235.72
2022-12-26T06:01:20.009Z,95227.69
2022-12-26T06:03:49.406Z,95240.66
2022-12-26T06:06:17.214Z,95238.25
2022-12-26T06:08:46.526Z,95231.59
2022-12-26T06:11:13.607Z,95233.69
2022-12-26T06:13:40.873Z,95234.19
2022-12-26T06:16:10.340Z,95235.91
2022-12-26T06:18:37.457Z,95219.16
2022-12-26T06:21:08.939Z,95228.09
2022-12-26T06:23:36.055Z,95227.63
2022-12-26T06:26:02.975Z,95221.66
2022-12-26T06:28:30.067Z,95203.13
2022-12-26T06:31:08.721Z,95197.34
2022-12-26T06:33:35.679Z,95192.06
2022-12-26T06:36:11.943Z,95196.38
2022-12-26T06:38:38.576Z,95187.03
2022-12-26T06:41:07.192Z,95182.84
2022-12-26T06:43:34.181Z,95188.69
2022-12-26T06:46:02.553Z,95178.41
2022-12-26T06:48:29.339Z,95176.25
2022-12-26T06:50:56.555Z,95176.69
2022-12-26T06:53:24.582Z,95182.50
2022-12-26T06:55:51.502Z,95184.03
2022-12-26T06:58:18.671Z,95191.25
2022-12-26T07:00:45.280Z,95184.38
2022-12-26T07:03:11.979Z,95185.44
2022-12-26T07:05:39.153Z,95184.47
2022-12-26T07:08:05.952Z,95180.16
2022-12-26T07:10:36.642Z,95177.19
2022-12-26T07:13:04.401Z,95176.22
2022-12-26T07:15:31.531Z,95170.25
2022-12-26T07:17:58.119Z,95182.47
2022-12-26T07:20:24.684Z,95195.72
2022-12-26T07:22:51.284Z,95198.56
2022-12-26T07:25:17.841Z,95199.66
2022-12-26T07:27:44.409Z,95201.03
2022-12-26T07:30:11.255Z,95202.91
2022-12-26T07:32:37.835Z,95207.63
2022-12-26T07:35:04.772Z,95208.47
2022-12-26T07:37:31.330Z,95210.66
2022-12-26T07:39:59.415Z,95215.78
2022-12-26T07:42:26.245Z,95227.94
2022-12-26T07:44:52.800Z,95228.22
2022-12-26T07:47:19.466Z,95217.66
2022-12-26T07:49:46.051Z,95225.78
2022-12-26T07:52:15.272Z,95222.41
2022-12-26T07:54:41.808Z,95243.13
2022-12-26T07:57:37.917Z,95230.22
2022-12-26T07:59:56.681Z,95235.38
2022-12-26T08:02:23.482Z,95242.00
2022-12-26T08:04:51.050Z,95233.09
2022-12-26T08:07:17.636Z,95229.25
2022-12-26T08:09:45.149Z,95238.44
2022-12-26T08:12:12.933Z,95232.72
2022-12-26T08:14:40.807Z,95229.97
2022-12-26T08:17:08.163Z,95225.22
2022-12-26T08:19:34.844Z,95219.13
2022-12-26T08:22:01.493Z,95221.72
2022-12-26T08:24:28.095Z,95220.13
2022-12-26T08:26:54.657Z,95212.59
2022-12-26T08:29:21.257Z,95214.75
2022-12-26T08:31:47.871Z,95213.06
2022-12-26T08:34:14.587Z,95214.06
2022-12-26T08:36:44.177Z,95214.50
2022-12-26T08:39:10.768Z,95214.44
2022-12-26T08:41:38.012Z,95209.38
2022-12-26T08:46:51.255Z,95215.41
2022-12-26T08:49:17.830Z,95210.84
2022-12-26T08:51:44.378Z,95208.06
2022-12-26T08:54:11.016Z,95202.16
2022-12-26T08:56:38.103Z,95197.50
2022-12-26T08:59:04.690Z,95191.75
2022-12-26T09:01:32.660Z,95194.84
2022-12-26T09:04:03.877Z,95191.88
2022-12-26T09:06:35.872Z,95190.28
2022-12-26T09:09:02.999Z,95187.34
2022-12-26T09:11:30.616Z,95182.88
2022-12-26T09:13:59.816Z,95189.03
2022-12-26T09:16:34.136Z,95184.22
2022-12-26T09:19:05.223Z,95191.88
2022-12-26T09:21:32.468Z,95173.00
2022-12-26T09:24:01.187Z,95176.72
2022-12-26T09:26:28.496Z,95174.38
2022-12-26T09:28:56.220Z,95180.25
2022-12-26T09:31:25.708Z,95175.03
2022-12-26T09:33:55.711Z,95176.34
2022-12-26T09:36:31.110Z,95184.13
2022-12-26T09:38:58.847Z,95184.94
2022-12-26T09:41:28.105Z,95195.31
2022-12-26T09:43:54.822Z,95187.06
2022-12-26T09:46:39.770Z,95212.50
2022-12-26T09:49:16.419Z,95204.69
2022-12-26T09:51:47.299Z,95200.34
2022-12-26T09:54:37.978Z,95206.34
2022-12-26T09:57:15.132Z,95199.88
2022-12-26T09:59:50.131Z,95204.25
2022-12-26T10:02:21.283Z,95195.13
2022-12-26T10:04:48.199Z,95185.03
2022-12-26T10:07:14.733Z,95186.09
2022-12-26T10:09:47.375Z,95181.66
2022-12-26T10:12:34.814Z,95187.66
2022-12-26T10:15:26.279Z,95186.59
2022-12-26T10:18:03.647Z,95185.34
2022-12-26T10:20:54.674Z,95184.25
2022-12-26T10:23:32.644Z,95179.75
2022-12-26T10:26:18.194Z,95182.06
2022-12-26T10:28:55.959Z,95173.19
2022-12-26T10:31:32.513Z,95175.00
2022-12-26T10:34:01.880Z,95169.75
2022-12-26T10:36:35.232Z,95172.31
2022-12-26T10:39:04.963Z,95180.88
2022-12-26T10:41:46.637Z,95170.31
2022-12-26T10:44:14.844Z,95166.59
2022-12-26T10:46:53.431Z,95162.09
2022-12-26T10:49:23.405Z,95169.06
2022-12-26T10:51:51.943Z,95172.66
2022-12-26T10:54:20.130Z,95160.94
2022-12-26T10:56:49.557Z,95165.66
2022-12-26T10:59:40.375Z,95159.97
2022-12-26T11:02:23.077Z,95161.47
2022-12-26T11:05:39.913Z,95156.28
2022-12-26T11:07:52.766Z,95155.63
2022-12-26T11:10:28.977Z,95159.34
2022-12-26T11:12:59.913Z,95164.41
2022-12-26T11:15:38.552Z,95170.19
2022-12-26T11:18:23.305Z,95172.84
2022-12-26T11:20:50.597Z,95177.03
2022-12-26T11:23:23.239Z,95165.53
2022-12-26T11:25:58.736Z,95180.59
2022-12-26T11:28:35.725Z,95174.78
2022-12-26T11:31:06.104Z,95182.03
2022-12-26T11:33:42.803Z,95178.13
2022-12-26T11:36:17.383Z,95188.38
2022-12-26T11:38:55.053Z,95184.47
2022-12-26T11:41:36.089Z,95191.78
2022-12-26T11:44:13.089Z,95188.81
2022-12-26T11:46:54.757Z,95201.94
2022-12-26T11:49:27.145Z,95188.44
2022-12-26T11:51:59.200Z,95195.44
2022-12-26T11:54:48.017Z,95193.66
2022-12-26T11:57:27.297Z,95197.78
2022-12-26T11:59:55.418Z,95191.63
2022-12-26T12:02:28.779Z,95202.34
2022-12-26T12:05:12.470Z,95219.66
2022-12-26T12:08:15.573Z,95224.13
2022-12-26T12:11:02.511Z,95243.69
2022-12-26T12:13:35.910Z,95244.69
2022-12-26T12:16:32.889Z,95265.00
2022-12-26T12:19:28.138Z,95258.34
2022-12-26T12:21:54.668Z,95253.41
2022-12-26T12:24:39.967Z,95262.31
2022-12-26T12:27:24.456Z,95269.59
2022-12-26T12:30:09.863Z,95268.97
2022-12-26T12:32:59.441Z,95262.44
2022-12-26T12:35:44.069Z,95262.63
2022-12-26T12:38:27.351Z,95282.22
2022-12-26T12:40:56.653Z,95289.25
2022-12-26T12:43:35.485Z,95309.88
2022-12-26T12:46:30.276Z,95311.94
2022-12-26T12:49:15.738Z,95306.63
2022-12-26T12:51:51.473Z,95320.19
2022-12-26T12:54:36.848Z,95305.31
2022-12-26T12:57:12.459Z,95310.25
2022-12-26T12:59:38.956Z,95313.66
2022-12-26T13:02:28.404Z,95304.56
2022-12-26T13:05:04.476Z,95306.78
2022-12-26T13:07:45.275Z,95301.88
2022-12-26T13:10:21.857Z,95299.22
2022-12-26T13:12:51.574Z,95308.31
2022-12-26T13:15:18.118Z,95314.16
2022-12-26T13:17:51.871Z,95322.28
2022-12-26T13:20:42.527Z,95335.84
2022-12-26T13:23:44.167Z,95330.00
2022-12-26T13:26:25.356Z,95337.75
2022-12-26T13:28:59.828Z,95342.63
2022-12-26T13:31:33.746Z,95339.25
2022-12-26T13:34:01.281Z,95334.34
2022-12-26T13:36:55.822Z,95328.38
2022-12-26T13:39:25.415Z,95329.88
2022-12-26T13:42:34.483Z,95336.25
2022-12-26T13:45:35.706Z,95338.72
2022-12-26T13:48:23.449Z,95340.72
2022-12-26T13:50:55.787Z,95340.47
2022-12-26T13:53:26.112Z,95344.13
2022-12-26T13:55:53.364Z,95337.88
2022-12-26T13:58:29.682Z,95331.50
2022-12-26T14:01:12.854Z,95348.34
2022-12-26T14:04:13.530Z,95356.06
2022-12-26T14:06:58.651Z,95359.13
2022-12-26T14:09:50.220Z,95372.78
2022-12-26T14:12:36.064Z,95370.06
2022-12-26T14:15:17.299Z,95372.81
2022-12-26T14:18:17.321Z,95392.72
2022-12-26T14:21:21.127Z,95396.69
2022-12-26T14:23:57.276Z,95387.13
2022-12-26T14:26:36.000Z,95387.28
2022-12-26T14:29:20.610Z,95388.53
2022-12-26T14:31:59.930Z,95385.38
2022-12-26T14:34:41.450Z,95389.28
2022-12-26T14:37:16.819Z,95397.06
2022-12-26T14:40:01.577Z,95392.31
2022-12-26T14:42:49.177Z,95389.66
2022-12-26T14:45:27.729Z,95396.63
2022-12-26T14:47:54.931Z,95389.47
2022-12-26T14:50:42.711Z,95381.75
2022-12-26T14:53:24.537Z,95392.94
2022-12-26T14:55:54.043Z,95397.22
2022-12-26T14:58:45.287Z,95384.91
2022-12-26T15:01:12.855Z,95390.78
2022-12-26T15:03:55.046Z,95379.88
2022-12-26T15:06:21.561Z,95378.38
2022-12-26T15:08:57.174Z,95373.78
2022-12-26T15:11:35.639Z,95381.88
2022-12-26T15:14:39.316Z,95381.22
2022-12-26T15:17:41.110Z,95371.44
2022-12-26T15:20:41.910Z,95385.22
2022-12-26T15:23:27.334Z,95371.91
2022-12-26T15:26:12.355Z,95380.19
2022-12-26T15:28:59.344Z,95372.59
2022-12-26T15:31:31.853Z,95375.72
2022-12-26T15:34:29.330Z,95381.84
2022-12-26T15:37:14.675Z,95377.47
2022-12-26T15:40:13.624Z,95382.91
2022-12-26T15:42:58.456Z,95376.09
2022-12-26T15:45:29.423Z,95368.81
2022-12-26T15:48:06.581Z,95372.81
2022-12-26T15:50:41.131Z,95359.41
2022-12-26T15:53:26.765Z,95381.16
2022-12-26T15:56:02.541Z,95375.00
2022-12-26T15:58:58.356Z,95387.22
2022-12-26T16:01:43.127Z,95386.56
2022-12-26T16:04:21.026Z,95377.94
2022-12-26T16:07:01.243Z,95390.19
2022-12-26T16:09:46.158Z,95367.81
2022-12-26T16:12:35.265Z,95366.22
2022-12-26T16:15:13.570Z,95376.53
2022-12-26T16:17:41.713Z,95365.25
2022-12-26T16:20:19.081Z,95369.81
2022-12-26T16:22:48.532Z,95372.22
2022-12-26T16:25:20.171Z,95368.44
2022-12-26T16:27:47.683Z,95365.59
2022-12-26T16:30:27.205Z,95370.34
2022-12-26T16:32:57.802Z,95377.59
2022-12-26T16:35:29.510Z,95376.91
2022-12-26T16:37:58.372Z,95372.25
2022-12-26T16:40:30.553Z,95372.50
2022-12-26T16:43:06.428Z,95358.41
2022-12-26T16:45:38.643Z,95337.31
2022-12-26T16:48:09.611Z,95315.97
2022-12-26T16:50:46.573Z,95333.94
2022-12-26T16:53:17.625Z,95333.53
2022-12-26T16:55:50.348Z,95307.44
2022-12-26T16:58:25.340Z,95308.63
2022-12-26T17:01:03.437Z,95321.09
2022-12-26T17:03:53.970Z,95321.44
2022-12-26T17:06:34.214Z,95313.19
2022-12-26T17:09:08.555Z,95335.09
2022-12-26T17:11:39.147Z,95340.22
2022-12-26T17:14:14.147Z,95349.84
2022-12-26T17:16:40.806Z,95336.59
2022-12-26T17:19:15.493Z,95343.59
2022-12-26T17:21:42.216Z,95316.84
2022-12-26T17:24:08.701Z,95314.69
2022-12-26T17:26:37.382Z,95334.75
2022-12-26T17:29:04.666Z,95346.53
2022-12-26T17:31:40.147Z,95345.16
2022-12-26T17:34:14.583Z,95352.72
2022-12-26T17:39:27.791Z,95355.94
2022-12-26T17:42:01.447Z,95367.59
2022-12-26T17:44:41.794Z,95382.44
2022-12-26T17:47:24.536Z,95377.44
2022-12-26T17:49:53.267Z,95376.28
2022-12-26T17:52:24.426Z,95363.00
2022-12-26T17:54:51.594Z,95391.31
2022-12-26T17:57:28.880Z,95399.59
2022-12-26T17:59:56.401Z,95390.72
2022-12-26T18:02:23.529Z,95379.19
2022-12-26T18:04:50.586Z,95385.44
2022-12-26T18:07:27.259Z,95392.41
2022-12-26T18:09:57.628Z,95378.19
2022-12-26T18:12:24.235Z,95366.28
2022-12-26T18:14:52.588Z,95369.91
2022-12-26T18:17:22.670Z,95374.81
2022-12-26T18:19:50.046Z,95365.41
2022-12-26T18:22:18.705Z,95368.13
2022-12-26T18:24:45.681Z,95355.53
2022-12-26T18:27:27.818Z,95362.63
2022-12-26T18:29:54.479Z,95385.03
2022-12-26T18:32:27.453Z,95387.03
2022-12-26T18:34:54.499Z,95375.69
2022-12-26T18:37:23.394Z,95379.47
2022-12-26T18:39:49.980Z,95366.84
2022-12-26T18:42:17.581Z,95360.47
2022-12-26T18:44:44.469Z,95380.06
2022-12-26T18:47:19.452Z,95377.47
2022-12-26T18:49:46.716Z,95387.28
2022-12-26T18:52:17.677Z,95365.66
2022-12-26T18:54:44.706Z,95364.53
2022-12-26T18:57:18.200Z,95388.44
2022-12-26T18:59:44.930Z,95388.56
2022-12-26T19:02:20.643Z,95378.78
2022-12-26T19:04:48.794Z,95378.44
2022-12-26T19:07:17.247Z,95372.69
2022-12-26T19:09:49.751Z,95366.28
2022-12-26T19:12:17.255Z,95363.84
2022-12-26T19:14:45.015Z,95367.97
2022-12-26T19:17:12.295Z,95370.75
2022-12-26T19:19:38.954Z,95380.41
2022-12-26T19:22:05.796Z,95364.63
2022-12-26T19:24:34.016Z,95369.28
2022-12-26T19:27:01.443Z,95371.22
2022-12-26T19:29:28.145Z,95375.88
2022-12-26T19:31:56.312Z,95384.88
2022-12-26T19:34:23.636Z,95386.47
2022-12-26T19:36:50.387Z,95378.03
2022-12-26T19:39:17.045Z,95383.78
2022-12-26T19:41:43.593Z,95385.09
2022-12-26T19:44:10.824Z,95394.75
2022-12-26T19:46:37.408Z,95389.22
2022-12-26T19:49:03.989Z,95395.06
2022-12-26T19:51:30.642Z,95394.81
2022-12-26T19:53:57.222Z,95397.75
2022-12-26T19:56:27.393Z,95401.16
2022-12-26T19:58:56.745Z,95394.78
2022-12-26T20:01:29.444Z,95399.09
2022-12-26T20:04:01.955Z,95404.00
2022-12-26T20:06:31.192Z,95384.84
2022-12-26T20:09:00.184Z,95386.00
2022-12-26T20:11:32.676Z,95385.47
2022-12-26T20:14:00.965Z,95377.91
2022-12-26T20:19:14.964Z,95363.94
2022-12-26T20:21:41.591Z,95354.03
2022-12-26T20:24:11.721Z,95353.09
2022-12-26T20:26:38.879Z,95351.09
2022-12-26T20:29:05.665Z,95370.00
2022-12-26T20:31:33.134Z,95357.34
2022-12-26T20:34:00.313Z,95362.31
2022-12-26T20:36:29.943Z,95364.19
2022-12-26T20:38:59.152Z,95373.03
2022-12-26T20:41:26.737Z,95366.94
2022-12-26T20:43:53.896Z,95378.72
2022-12-26T20:46:23.220Z,95381.09
2022-12-26T20:48:50.068Z,95377.81
2022-12-26T20:51:23.223Z,95392.66
2022-12-26T20:53:51.166Z,95408.22
2022-12-26T20:56:18.011Z,95406.34
2022-12-26T20:58:44.827Z,95399.91
2022-12-26T21:01:22.724Z,95416.91
2022-12-26T21:03:52.519Z,95417.41
2022-12-26T21:06:22.784Z,95424.16
2022-12-26T21:08:51.403Z,95431.31
2022-12-26T21:11:31.870Z,95446.88
2022-12-26T21:14:04.289Z,95447.84
2022-12-26T21:16:34.936Z,95469.44
2022-12-26T21:19:02.286Z,95483.84
2022-12-26T21:21:32.049Z,95497.94
2022-12-26T21:24:08.243Z,95498.78
2022-12-26T21:26:36.519Z,95510.25
2022-12-26T21:29:06.089Z,95519.56
2022-12-26T21:31:34.478Z,95513.16
2022-12-26T21:34:02.174Z,95547.03
2022-12-26T21:36:29.757Z,95520.69
2022-12-26T21:38:57.638Z,95532.53
2022-12-26T21:41:25.298Z,95521.69
2022-12-26T21:43:54.515Z,95527.03
2022-12-26T21:46:21.600Z,95535.38
2022-12-26T21:48:49.769Z,95527.81
2022-12-26T21:51:22.479Z,95532.66
2022-12-26T21:53:51.994Z,95537.47
2022-12-26T21:56:18.562Z,95541.88
2022-12-26T21:59:03.733Z,95544.69
2022-12-26T22:01:30.841Z,95551.50
2022-12-26T22:04:16.303Z,95554.38
2022-12-26T22:06:42.925Z,95562.88
2022-12-26T22:09:10.232Z,95564.41
2022-12-26T22:11:56.014Z,95572.47
2022-12-26T22:14:22.864Z,95564.47
2022-12-26T22:16:54.047Z,95562.91
2022-12-26T22:19:20.845Z,95576.13
2022-12-26T22:21:47.397Z,95577.84
2022-12-26T22:24:14.875Z,95572.97
2022-12-26T22:26:41.560Z,95569.72
2022-12-26T22:29:08.525Z,95573.28
2022-12-26T22:31:37.413Z,95570.16
2022-12-26T22:34:11.880Z,95575.31
2022-12-26T22:36:39.377Z,95580.69
2022-12-26T22:39:06.296Z,95576.97
2022-12-26T22:41:33.493Z,95585.56
2022-12-26T22:44:00.106Z,95579.38
2022-12-26T22:46:26.752Z,95584.53
2022-12-26T22:48:53.346Z,95586.97
2022-12-26T22:51:25.365Z,95574.28
2022-12-26T22:54:00.184Z,95580.28
2022-12-26T22:56:28.072Z,95572.81
2022-12-26T22:58:56.391Z,95586.28
2022-12-26T23:01:23.270Z,95587.47
2022-12-26T23:03:49.970Z,95593.53
2022-12-26T23:06:25.485Z,95603.09
2022-12-26T23:08:54.385Z,95597.03
2022-12-26T23:11:21.989Z,95595.78
2022-12-26T23:13:49.666Z,95607.88
2022-12-26T23:16:33.213Z,95605.44
2022-12-26T23:19:22.445Z,95618.00
2022-12-26T23:21:50.461Z,95620.69
2022-12-26T23:24:25.860Z,95629.59
2022-12-26T23:27:21.124Z,95625.00
2022-12-26T23:30:09.985Z,95618.69
2022-12-26T23:32:38.203Z,95620.06
2022-12-26T23:35:06.447Z,95619.84
2022-12-26T23:37:33.420Z,95627.44
2022-12-26T23:40:00.083Z,95627.75
2022-12-26T23:42:26.676Z,95622.31
2022-12-26T23:44:53.231Z,95630.75
2022-12-26T23:47:19.778Z,95637.69
2022-12-26T23:49:46.354Z,95625.22
2022-12-26T23:52:12.925Z,95630.22
2022-12-26T23:54:39.495Z,95650.47
2022-12-26T23:57:06.065Z,95649.69
2022-12-26T23:59:32.617Z,95649.50
